Time;durP1;ratioP1;P1;durP2;ratioP2;P2;SDS_P1;SDS_P2;PMS_P1;PMS_P2;Temp;Humidity;BMP_temperature;BMP_pressure;BME280_temperature;BME280_humidity;BME280_pressure;Samples;Min_cycle;Max_cycle;Signal;HPM_P1;HPM_P2
2022/05/17 00:00:49;;;;;;;23.13;16.67;;;;;;;10.81;71.19;93747.41;5092572;28;20073;-50
2022/05/17 00:03:15;;;;;;;10.85;9.43;;;;;;;10.37;71.59;93752.03;5092541;28;20101;-51
2022/05/17 00:05:41;;;;;;;11.35;9.23;;;;;;;10.42;72.69;93748.41;5092778;28;20023;-50
2022/05/17 00:08:07;;;;;;;8.85;5.70;;;;;;;10.40;71.48;93750.97;5092751;28;20038;-51
2022/05/17 00:10:33;;;;;;;10.20;6.10;;;;;;;10.46;72.00;93748.81;5092785;28;20028;-47
2022/05/17 00:12:58;;;;;;;14.65;7.93;;;;;;;10.76;70.84;93740.03;5092416;28;20378;-51
2022/05/17 00:15:24;;;;;;;10.90;9.18;;;;;;;10.68;70.87;93744.72;5092404;28;20058;-51
2022/05/17 00:17:50;;;;;;;16.45;11.07;;;;;;;10.43;71.41;93738.88;5092570;28;20027;-51
2022/05/17 00:20:16;;;;;;;13.88;11.60;;;;;;;10.53;71.19;93739.09;5092226;28;20024;-50
2022/05/17 00:22:43;;;;;;;13.23;10.93;;;;;;;10.64;70.43;93742.31;5111573;28;20030;-50
2022/05/17 00:25:09;;;;;;;10.02;8.63;;;;;;;10.78;69.61;93733.94;5111328;28;20028;-51
2022/05/17 00:27:35;;;;;;;10.75;7.88;;;;;;;10.85;69.62;93733.25;5112502;28;20027;-50
2022/05/17 00:30:01;;;;;;;9.55;7.65;;;;;;;10.86;69.33;93729.94;5112702;28;20031;-49
2022/05/17 00:32:26;;;;;;;11.65;9.23;;;;;;;10.87;69.18;93722.41;5112674;28;20035;-50
2022/05/17 00:34:52;;;;;;;10.52;8.48;;;;;;;10.43;70.47;93727.09;5112279;28;20023;-50
2022/05/17 00:37:17;;;;;;;9.93;6.28;;;;;;;10.43;71.02;93729.84;5112341;28;20043;-48
2022/05/17 00:39:42;;;;;;;9.57;5.82;;;;;;;10.50;70.18;93716.06;5112231;28;20020;-51
2022/05/17 00:42:08;;;;;;;5.95;4.78;;;;;;;10.16;70.43;93726.50;5112134;28;20034;-49
2022/05/17 00:44:43;;;;;;;4.85;4.38;;;;;;;10.28;70.96;93721.44;5112431;28;20494;-49
2022/05/17 00:47:42;;;;;;;6.88;5.55;;;;;;;10.30;70.91;93736.19;5106182;28;20055;-47
2022/05/17 00:50:28;;;;;;;5.68;5.05;;;;;;;10.09;70.96;93729.19;5091602;28;20550;-52
2022/05/17 00:52:56;;;;;;;8.50;5.75;;;;;;;10.20;70.69;93723.41;5091966;28;20028;-52
2022/05/17 00:55:42;;;;;;;9.32;6.95;;;;;;;9.87;71.40;93716.66;5090721;28;20032;-52
2022/05/17 00:58:16;;;;;;;8.57;5.38;;;;;;;9.85;71.64;93719.94;5096945;28;20115;-52
2022/05/17 01:01:02;;;;;;;6.53;5.93;;;;;;;9.94;71.88;93716.72;5111677;28;20090;-50
2022/05/17 01:04:08;;;;;;;8.48;6.30;;;;;;;9.89;72.08;93714.84;5111899;28;20028;-52
2022/05/17 01:06:37;;;;;;;7.20;6.25;;;;;;;10.07;71.22;93715.19;5091011;28;20413;-51
2022/05/17 01:09:03;;;;;;;7.55;6.20;;;;;;;9.82;72.06;93714.75;5111951;28;20417;-51
2022/05/17 01:11:29;;;;;;;6.75;5.45;;;;;;;10.03;71.21;93712.75;5111886;28;20034;-53
2022/05/17 01:16:38;;;;;;;5.97;5.38;;;;;;;9.93;70.72;93717.25;5111596;28;20067;-50
2022/05/17 01:19:06;;;;;;;6.97;6.28;;;;;;;9.77;71.69;93718.38;5111823;27;20424;-52
2022/05/17 01:21:32;;;;;;;5.88;5.28;;;;;;;9.88;71.67;93718.88;5111348;28;20401;-49
2022/05/17 01:23:57;;;;;;;7.47;6.18;;;;;;;9.92;71.30;93713.00;5111375;28;20485;-52
2022/05/17 01:26:26;;;;;;;9.02;6.57;;;;;;;9.79;71.93;93711.06;5111660;28;20032;-52
2022/05/17 01:28:52;;;;;;;7.40;6.55;;;;;;;9.78;72.03;93695.06;5111318;28;20027;-51
2022/05/17 01:31:18;;;;;;;10.20;6.43;;;;;;;9.90;71.77;93701.78;5111719;27;20084;-52
2022/05/17 01:33:43;;;;;;;7.72;6.45;;;;;;;9.98;71.38;93697.09;5110025;28;20107;-50
2022/05/17 01:36:10;;;;;;;6.95;6.05;;;;;;;9.61;72.67;93697.47;5111135;28;20023;-52
2022/05/17 01:38:36;;;;;;;6.75;6.00;;;;;;;9.79;72.25;93693.78;5111169;28;20484;-52
2022/05/17 01:41:02;;;;;;;6.78;5.22;;;;;;;9.79;71.86;93704.78;5111360;28;20047;-51
2022/05/17 01:43:28;;;;;;;8.50;6.88;;;;;;;9.69;71.53;93696.28;5104254;28;20035;-52
2022/05/17 01:45:54;;;;;;;8.00;6.13;;;;;;;9.87;71.05;93691.84;5090710;28;20020;-52
2022/05/17 01:48:19;;;;;;;7.32;6.25;;;;;;;9.79;71.31;93696.53;5090623;28;20024;-48
2022/05/17 01:50:45;;;;;;;6.25;5.65;;;;;;;9.71;70.88;93692.97;5090705;28;20023;-51
2022/05/17 01:53:11;;;;;;;6.47;5.88;;;;;;;9.49;71.18;93707.25;5090493;28;20023;-50
2022/05/17 01:55:37;;;;;;;8.18;6.57;;;;;;;9.60;71.38;93707.00;5090611;28;20028;-50
2022/05/17 01:58:03;;;;;;;7.03;6.28;;;;;;;9.47;71.49;93694.03;5096358;28;20053;-50
2022/05/17 02:00:28;;;;;;;9.05;7.05;;;;;;;9.51;71.98;93704.69;5110682;28;20522;-51
2022/05/17 02:02:54;;;;;;;6.90;6.20;;;;;;;9.55;71.71;93700.34;5110686;28;20039;-49
2022/05/17 02:05:21;;;;;;;7.53;6.75;;;;;;;9.42;72.44;93700.38;5110997;28;20024;-48
2022/05/17 02:07:48;;;;;;;7.65;6.95;;;;;;;9.33;73.48;93695.34;5111079;28;20031;-48
2022/05/17 02:10:14;;;;;;;6.93;6.22;;;;;;;9.10;72.09;93702.59;5110973;28;20030;-49
2022/05/17 02:12:40;;;;;;;7.45;6.00;;;;;;;9.31;71.87;93702.66;5110976;28;20103;-51
2022/05/17 02:15:06;;;;;;;8.48;6.25;;;;;;;9.10;71.44;93677.81;5110434;28;20074;-48
2022/05/17 02:17:32;;;;;;;12.90;6.60;;;;;;;9.20;71.48;93694.63;5110572;28;20548;-48
2022/05/17 02:20:06;;;;;;;7.93;5.78;;;;;;;9.23;71.97;93704.56;5110658;28;20067;-51
2022/05/17 02:22:32;;;;;;;6.53;5.78;;;;;;;9.29;71.58;93702.47;5110443;28;20024;-50
2022/05/17 02:24:57;;;;;;;7.80;6.28;;;;;;;9.35;71.51;93714.84;5110894;28;20038;-50
2022/05/17 02:27:22;;;;;;;8.75;5.90;;;;;;;9.32;71.03;93709.66;5110808;28;20409;-51
2022/05/17 02:29:48;;;;;;;6.90;6.20;;;;;;;9.23;71.24;93712.84;5110521;28;20030;-50
2022/05/17 02:32:14;;;;;;;10.13;6.40;;;;;;;9.06;71.77;93711.19;5110807;28;20020;-48
2022/05/17 02:34:40;;;;;;;7.97;6.50;;;;;;;8.79;72.74;93704.22;5110467;28;20028;-51
2022/05/17 02:37:06;;;;;;;7.80;6.97;;;;;;;8.77;73.72;93697.81;5110533;28;20036;-50
2022/05/17 02:39:31;;;;;;;6.70;5.97;;;;;;;8.83;73.53;93699.16;5105560;28;20024;-51
2022/05/17 02:41:57;;;;;;;7.85;6.18;;;;;;;8.82;73.37;93702.44;5090318;28;20417;-50
2022/05/17 02:44:23;;;;;;;8.02;6.65;;;;;;;8.99;72.68;93705.59;5090016;28;20052;-50
2022/05/17 02:46:48;;;;;;;11.52;6.38;;;;;;;8.91;72.98;93705.50;5090027;28;20044;-49
2022/05/17 02:49:14;;;;;;;7.80;5.85;;;;;;;8.86;72.81;93700.84;5090026;28;20020;-49
2022/05/17 02:51:39;;;;;;;6.90;6.20;;;;;;;8.82;72.91;93702.44;5090270;28;20031;-51
2022/05/17 02:54:07;;;;;;;8.80;7.75;;;;;;;8.59;72.67;93704.91;5089930;28;20099;-50
2022/05/17 02:56:33;;;;;;;13.07;10.30;;;;;;;8.38;73.60;93695.81;5090205;28;20081;-49
2022/05/17 02:58:58;;;;;;;10.13;8.95;;;;;;;8.52;73.53;93711.03;5103599;28;20024;-50
2022/05/17 03:01:24;;;;;;;10.75;8.15;;;;;;;8.63;73.87;93712.81;5110148;28;20051;-52
2022/05/17 03:03:49;;;;;;;10.02;8.45;;;;;;;8.60;73.59;93708.41;5110058;28;20412;-49
2022/05/17 03:06:15;;;;;;;13.15;7.85;;;;;;;8.60;73.52;93711.16;5110525;28;20031;-51
2022/05/17 03:08:40;;;;;;;8.40;7.40;;;;;;;8.70;72.99;93710.19;5110205;28;20107;-52
2022/05/17 03:11:06;;;;;;;8.88;7.07;;;;;;;8.59;73.08;93710.41;5110477;28;20495;-51
2022/05/17 03:13:32;;;;;;;10.48;7.20;;;;;;;8.46;73.61;93709.66;5109279;28;20408;-50
2022/05/17 03:15:58;;;;;;;7.65;6.70;;;;;;;8.49;73.55;93706.56;5110109;28;20028;-51
2022/05/17 03:18:24;;;;;;;7.22;6.35;;;;;;;8.54;73.78;93702.22;5110100;28;20039;-52
2022/05/17 03:20:49;;;;;;;6.80;6.15;;;;;;;8.66;73.35;93703.53;5110024;28;20073;-51
2022/05/17 03:23:15;;;;;;;8.20;7.38;;;;;;;8.50;73.43;93699.81;5109937;28;20031;-52
2022/05/17 03:25:40;;;;;;;10.50;7.80;;;;;;;8.38;74.06;93704.06;5110015;28;20030;-50
2022/05/17 03:28:06;;;;;;;8.48;7.00;;;;;;;8.44;74.41;93701.94;5112560;28;20028;-52
2022/05/17 03:30:32;;;;;;;9.07;6.93;;;;;;;8.59;73.59;93704.91;5113619;28;20031;-50
2022/05/17 03:32:58;;;;;;;9.52;6.10;;;;;;;8.71;72.65;93706.16;5113903;28;20020;-52
2022/05/17 03:35:24;;;;;;;6.40;5.75;;;;;;;8.80;71.79;93705.72;5111856;28;20036;-52
2022/05/17 03:37:50;;;;;;;7.13;5.65;;;;;;;8.86;70.90;93711.84;5093433;28;20040;-51
2022/05/17 03:40:16;;;;;;;8.18;5.72;;;;;;;8.81;71.30;93709.97;5093125;28;20035;-49
2022/05/17 03:42:41;;;;;;;14.35;6.25;;;;;;;8.91;71.66;93713.00;5093242;28;20028;-51
2022/05/17 03:45:08;;;;;;;10.02;7.15;;;;;;;8.70;72.64;93709.44;5093309;28;20028;-51
2022/05/17 03:47:34;;;;;;;8.27;6.53;;;;;;;8.64;73.68;93717.78;5093265;28;20036;-48
2022/05/17 03:49:59;;;;;;;8.10;7.05;;;;;;;8.61;74.10;93718.88;5093216;28;20044;-52
2022/05/17 03:52:26;;;;;;;10.40;7.10;;;;;;;8.67;73.78;93711.25;5092852;28;20070;-51
2022/05/17 03:54:56;;;;;;;11.20;7.95;;;;;;;8.66;74.42;93720.78;5093049;28;20031;-50
2022/05/17 03:57:22;;;;;;;10.15;7.82;;;;;;;8.75;74.83;93714.81;5092991;28;20089;-52
2022/05/17 03:59:47;;;;;;;8.75;7.72;;;;;;;8.86;74.36;93720.13;5092724;28;20044;-52
2022/05/17 04:02:13;;;;;;;11.48;8.55;;;;;;;8.99;74.65;93722.84;5092508;28;20031;-51
2022/05/17 04:04:39;;;;;;;11.45;7.43;;;;;;;9.09;74.17;93714.91;5092678;28;20031;-50
2022/05/17 04:07:04;;;;;;;9.85;8.02;;;;;;;9.18;73.44;93721.97;5092547;28;20062;-51
2022/05/17 04:09:30;;;;;;;27.75;9.15;;;;;;;9.35;73.02;93727.88;5092472;28;20031;-51
2022/05/17 04:11:56;;;;;;;10.65;7.65;;;;;;;9.42;72.61;93727.22;5092771;28;20061;-49
2022/05/17 04:14:21;;;;;;;10.88;6.75;;;;;;;9.68;70.88;93721.63;5092411;28;20031;-50
2022/05/17 04:16:47;;;;;;;11.02;7.95;;;;;;;10.02;70.11;93729.84;5092732;28;20032;-49
2022/05/17 04:19:15;;;;;;;9.68;7.05;;;;;;;10.25;70.01;93722.50;5092329;28;20031;-51
2022/05/17 04:21:42;;;;;;;8.85;7.15;;;;;;;10.30;70.34;93729.94;5092139;28;20032;-51
2022/05/17 04:24:08;;;;;;;10.88;7.20;;;;;;;10.28;70.50;93713.91;5092438;28;20024;-52
2022/05/17 04:26:33;;;;;;;10.45;7.93;;;;;;;10.48;70.31;93723.44;5092502;28;20425;-49
2022/05/17 04:28:59;;;;;;;9.73;7.25;;;;;;;10.60;71.44;93739.16;5092420;28;20030;-50
2022/05/17 04:31:25;;;;;;;8.73;7.80;;;;;;;10.84;70.66;93723.47;5092425;28;20416;-50
2022/05/17 04:33:50;;;;;;;10.43;8.18;;;;;;;11.28;70.25;93725.00;5112148;28;20031;-51
2022/05/17 04:36:16;;;;;;;8.88;6.90;;;;;;;11.76;68.48;93721.28;5112330;28;20608;-51
2022/05/17 04:38:41;;;;;;;7.50;6.72;;;;;;;12.52;65.77;93719.31;5111847;28;20042;-49
2022/05/17 04:41:07;;;;;;;11.70;7.65;;;;;;;12.94;64.24;93709.31;5112271;28;20027;-51
2022/05/17 04:43:32;;;;;;;9.52;7.82;;;;;;;13.16;64.73;93718.88;5112437;28;20068;-51
2022/05/17 04:45:58;;;;;;;10.13;7.70;;;;;;;13.33;64.08;93707.16;5112468;28;20109;-51
2022/05/17 04:48:29;;;;;;;9.52;7.72;;;;;;;13.36;64.19;93704.00;5112387;28;20445;-51
2022/05/17 04:50:55;;;;;;;10.52;7.85;;;;;;;13.52;63.72;93713.75;5112423;28;20032;-52
2022/05/17 04:53:20;;;;;;;26.55;8.85;;;;;;;13.95;64.20;93714.63;5111954;28;20026;-51
2022/05/17 04:55:46;;;;;;;14.27;8.00;;;;;;;14.20;63.77;93720.94;5111176;28;20031;-49
2022/05/17 04:58:12;;;;;;;18.63;8.13;;;;;;;14.34;63.79;93719.38;5105128;28;20027;-51
2022/05/17 05:00:40;;;;;;;9.00;7.72;;;;;;;14.75;63.00;93724.22;5091464;28;20101;-50
2022/05/17 05:03:06;;;;;;;10.13;9.07;;;;;;;15.04;60.92;93714.13;5091724;28;20039;-52
2022/05/17 05:05:31;;;;;;;16.83;10.48;;;;;;;15.17;60.24;93724.94;5091346;28;20416;-52
2022/05/17 05:07:57;;;;;;;22.65;12.23;;;;;;;15.27;59.92;93718.72;5091484;28;20063;-48
2022/05/17 05:10:23;;;;;;;13.65;11.63;;;;;;;15.12;59.93;93719.59;5091561;28;20028;-49
2022/05/17 05:12:48;;;;;;;15.20;11.65;;;;;;;15.10;60.47;93711.09;5091335;28;20588;-50
2022/05/17 05:15:15;;;;;;;14.23;11.32;;;;;;;15.48;60.16;93707.94;5091184;28;20081;-51
2022/05/17 05:17:40;;;;;;;18.65;12.25;;;;;;;16.18;59.06;93707.91;5091499;28;20600;-51
2022/05/17 05:20:09;;;;;;;40.20;11.10;;;;;;;16.90;57.24;93701.59;5091471;28;20035;-49
2022/05/17 05:22:34;;;;;;;49.92;16.10;;;;;;;17.58;56.01;93700.34;5091271;28;20107;-49
2022/05/17 05:25:00;;;;;;;15.02;10.55;;;;;;;18.46;54.48;93703.09;5091350;28;20036;-50
2022/05/17 05:27:26;;;;;;;13.18;11.00;;;;;;;19.17;50.69;93711.41;5091267;28;20500;-48
2022/05/17 05:29:51;;;;;;;13.73;10.48;;;;;;;19.31;50.82;93709.56;5109096;28;20067;-49
2022/05/17 05:32:16;;;;;;;12.60;10.35;;;;;;;19.91;49.90;93709.22;5111345;28;20020;-49
2022/05/17 05:34:42;;;;;;;12.50;11.15;;;;;;;20.23;49.41;93708.47;5111480;28;20099;-47
2022/05/17 05:37:08;;;;;;;10.40;9.35;;;;;;;20.15;50.00;93716.34;5111517;28;20472;-51
2022/05/17 05:39:33;;;;;;;9.05;7.88;;;;;;;20.03;50.49;93710.00;5111409;28;20023;-51
2022/05/17 05:41:58;;;;;;;9.02;8.18;;;;;;;20.15;50.88;93716.34;5111010;28;20024;-49
2022/05/17 05:44:24;;;;;;;19.65;8.32;;;;;;;19.92;52.25;93713.50;5111086;28;20080;-50
2022/05/17 05:46:50;;;;;;;18.90;7.07;;;;;;;19.83;51.95;93715.06;5111036;28;20023;-49
2022/05/17 05:49:15;;;;;;;7.88;7.18;;;;;;;19.81;53.00;93711.38;5110569;28;20045;-49
2022/05/17 05:51:42;;;;;;;6.68;6.07;;;;;;;20.10;52.44;93715.38;5110899;28;20020;-48
2022/05/17 05:54:07;;;;;;;7.00;5.68;;;;;;;20.77;50.78;93716.72;5111209;28;20455;-49
2022/05/17 05:56:33;;;;;;;13.23;6.25;;;;;;;21.28;49.74;93714.88;5110870;28;20031;-49
2022/05/17 05:58:59;;;;;;;6.70;5.90;;;;;;;21.62;48.00;93697.94;5097617;28;20032;-49
2022/05/17 06:01:26;;;;;;;7.60;5.93;;;;;;;21.66;48.17;93698.16;5090401;28;20052;-50
2022/05/17 06:03:52;;;;;;;8.77;6.72;;;;;;;21.86;48.39;93704.22;5090346;28;20679;-48
2022/05/17 06:06:17;;;;;;;7.03;6.00;;;;;;;22.00;48.01;93709.91;5090742;28;20054;-48
2022/05/17 06:08:42;;;;;;;9.15;6.57;;;;;;;22.11;47.46;93712.66;5090666;28;20524;-49
2022/05/17 06:11:08;;;;;;;8.07;6.65;;;;;;;21.88;47.75;93701.53;5090402;28;20024;-51
2022/05/17 06:13:34;;;;;;;7.40;6.15;;;;;;;21.71;46.94;93699.84;5089730;28;20157;-50
2022/05/17 06:15:59;;;;;;;6.70;5.78;;;;;;;21.54;46.74;93696.72;5089763;28;20108;-51
2022/05/17 06:18:25;;;;;;;8.07;6.28;;;;;;;21.71;47.21;93693.50;5090295;28;20039;-48
2022/05/17 06:20:53;;;;;;;16.40;6.80;;;;;;;22.17;47.17;93698.22;5096298;28;20024;-49
2022/05/17 06:23:20;;;;;;;9.20;5.43;;;;;;;22.23;45.84;93696.47;5110599;28;20039;-50
2022/05/17 06:25:45;;;;;;;11.60;5.22;;;;;;;22.48;45.67;93698.50;5095191;28;20115;-51
2022/05/17 06:28:11;;;;;;;6.22;4.90;;;;;;;22.76;45.10;93693.69;5090183;28;20054;-50
2022/05/17 06:30:37;;;;;;;9.95;5.80;;;;;;;22.79;44.63;93692.44;5090520;28;20032;-51
2022/05/17 06:33:02;;;;;;;5.45;4.88;;;;;;;22.97;44.39;93701.84;5090152;28;20031;-52
2022/05/17 06:35:28;;;;;;;7.32;5.90;;;;;;;23.23;45.52;93695.47;5090526;28;20099;-50
2022/05/17 06:37:54;;;;;;;6.22;5.55;;;;;;;23.55;43.04;93695.66;5090401;28;20531;-49
2022/05/17 06:40:19;;;;;;;8.82;6.72;;;;;;;23.72;43.02;93692.28;5089187;28;20081;-48
2022/05/17 06:42:45;;;;;;;5.72;5.15;;;;;;;24.02;44.21;93700.13;5090247;28;20514;-50
2022/05/17 06:45:12;;;;;;;7.70;4.90;;;;;;;24.94;41.06;93691.75;5090331;28;20462;-50
2022/05/17 06:47:38;;;;;;;6.32;5.75;;;;;;;25.70;39.33;93690.81;5090363;28;20115;-50
2022/05/17 06:50:06;;;;;;;6.13;5.38;;;;;;;26.74;37.61;93697.88;5090322;28;20024;-53
2022/05/17 06:52:31;;;;;;;9.80;6.13;;;;;;;27.25;35.92;93694.06;5090264;28;20016;-51
2022/05/17 06:54:57;;;;;;;10.48;5.25;;;;;;;27.43;35.94;93692.63;5090318;28;20028;-52
2022/05/17 06:57:22;;;;;;;4.93;4.00;;;;;;;28.13;34.87;93685.81;5089844;28;20393;-50
2022/05/17 06:59:48;;;;;;;7.72;4.95;;;;;;;28.56;33.16;93684.31;5110334;28;20048;-49
2022/05/17 07:02:13;;;;;;;4.88;4.43;;;;;;;28.35;32.22;93680.13;5111568;28;20023;-50
2022/05/17 07:04:39;;;;;;;7.97;4.35;;;;;;;29.09;32.13;93684.50;5114386;28;20027;-51
2022/05/17 07:07:06;;;;;;;18.70;6.20;;;;;;;29.74;31.66;93681.38;5114100;28;20408;-50
2022/05/17 07:09:32;;;;;;;8.27;4.22;;;;;;;30.46;31.11;93674.69;5114329;28;20454;-51
2022/05/17 07:14:42;;;;;;;4.15;3.75;;;;;;;30.91;27.75;93667.88;5114094;28;20523;-50
2022/05/17 07:17:18;;;;;;;4.75;4.32;;;;;;;31.28;28.79;93669.34;5113930;28;20055;-49
2022/05/17 07:19:45;;;;;;;4.82;4.38;;;;;;;32.50;28.34;93676.66;5114231;28;20076;-49
2022/05/17 07:22:11;;;;;;;4.38;3.75;;;;;;;33.78;25.66;93673.38;5096595;28;20117;-50
2022/05/17 07:24:36;;;;;;;4.45;3.70;;;;;;;34.85;23.97;93672.16;5093701;28;20493;-49
2022/05/17 07:27:03;;;;;;;4.00;3.60;;;;;;;35.70;22.15;93664.75;5093581;28;20027;-50
2022/05/17 07:29:28;;;;;;;4.22;3.83;;;;;;;34.96;23.09;93660.06;5093604;28;20412;-49
2022/05/17 07:31:54;;;;;;;6.70;4.68;;;;;;;35.69;23.05;93672.63;5093200;28;20028;-49
2022/05/17 07:34:19;;;;;;;36.63;18.80;;;;;;;36.52;22.42;93663.50;5093166;28;20024;-52
2022/05/17 07:36:45;;;;;;;43.20;18.25;;;;;;;37.06;21.11;93652.66;5093122;28;20031;-52
2022/05/17 07:39:11;;;;;;;10.57;8.50;;;;;;;37.02;20.12;93658.41;5093101;28;20035;-52
2022/05/17 07:41:37;;;;;;;14.90;8.95;;;;;;;37.07;20.57;93654.09;5093077;28;20114;-50
2022/05/17 07:44:03;;;;;;;4.18;3.55;;;;;;;36.31;20.76;93659.84;5093298;28;20102;-52
2022/05/17 07:46:29;;;;;;;18.23;16.52;;;;;;;36.86;21.05;93655.53;5093306;28;20043;-51
2022/05/17 07:48:55;;;;;;;3.85;3.40;;;;;;;37.19;21.02;93656.94;5093193;28;20099;-48
2022/05/17 07:51:20;;;;;;;5.68;2.45;;;;;;;37.29;19.81;93658.34;5093182;28;20020;-52
2022/05/17 07:53:46;;;;;;;4.03;2.80;;;;;;;38.10;20.17;93662.31;5092816;28;20492;-48
2022/05/17 07:56:13;;;;;;;4.05;2.60;;;;;;;38.63;18.86;93654.75;5092810;28;20028;-48
2022/05/17 07:58:38;;;;;;;4.55;2.40;;;;;;;38.88;17.30;93648.78;5103638;28;20019;-47
2022/05/17 08:01:04;;;;;;;6.15;1.98;;;;;;;39.20;17.46;93660.03;5112874;28;20058;-52
2022/05/17 08:03:30;;;;;;;3.03;2.08;;;;;;;39.44;17.37;93659.75;5113299;28;20453;-51
2022/05/17 08:05:55;;;;;;;2.53;2.08;;;;;;;39.66;17.59;93653.00;5113237;28;20020;-49
2022/05/17 08:08:21;;;;;;;2.25;1.90;;;;;;;39.44;16.51;93648.19;5112937;28;20526;-52
2022/05/17 08:10:46;;;;;;;4.88;2.30;;;;;;;38.95;17.40;93650.16;5113108;28;20057;-47
2022/05/17 08:13:14;;;;;;;3.50;1.95;;;;;;;38.89;17.12;93653.09;5112268;28;20401;-50
2022/05/17 08:15:39;;;;;;;;;;;;;;;39.42;16.63;93639.53;5112474;28;20023;-48
2022/05/17 08:18:05;;;;;;;6.37;2.53;;;;;;;39.74;16.69;93639.19;5098683;28;19919;-47
2022/05/17 08:20:31;;;;;;;3.13;2.10;;;;;;;40.04;16.70;93638.78;5095335;28;20107;-53
2022/05/17 08:22:57;;;;;;;2.33;2.08;;;;;;;40.30;15.97;93637.69;5112547;28;20024;-50
2022/05/17 08:28:07;;;;;;;7.45;2.88;;;;;;;39.73;16.08;93637.75;5112610;28;20035;-51
2022/05/17 08:30:34;;;;;;;3.83;2.10;;;;;;;40.22;16.17;93634.19;5112771;28;20057;-49
2022/05/17 08:33:17;;;;;;;3.75;2.30;;;;;;;39.93;15.97;93631.69;5112819;28;20020;-48
2022/05/17 08:35:50;;;;;;;4.88;2.10;;;;;;;40.42;14.83;93633.91;5112445;28;20114;-49
2022/05/17 08:38:20;;;;;;;1.75;1.60;;;;;;;39.80;14.86;93630.44;5112678;28;20031;-51
2022/05/17 08:41:08;;;;;;;3.00;1.48;;;;;;;39.18;16.23;93619.63;5112618;28;20023;-49
2022/05/17 08:43:51;;;;;;;;;;;;;;;39.52;16.33;93627.16;5112878;28;20028;-50
2022/05/17 08:46:47;;;;;;;3.45;2.25;;;;;;;39.27;15.51;93618.78;5112166;28;20449;-51
2022/05/17 08:49:45;;;;;;;3.50;2.00;;;;;;;39.98;15.30;93615.00;5112163;28;20116;-49
2022/05/17 08:52:21;;;;;;;2.72;1.70;;;;;;;39.70;15.34;93618.97;5088632;28;20393;-49
2022/05/17 08:54:54;;;;;;;2.97;1.88;;;;;;;39.67;15.23;93625.53;5111007;28;20057;-49
2022/05/17 08:57:44;;;;;;;4.03;2.28;;;;;;;39.88;15.53;93609.34;5112355;28;20027;-52
2022/05/17 09:00:19;;;;;;;2.97;1.80;;;;;;;40.33;14.51;93609.44;5090447;28;20040;-51
2022/05/17 09:02:54;;;;;;;2.90;1.70;;;;;;;39.91;15.23;93613.66;5091786;28;20028;-49
2022/05/17 09:05:36;;;;;;;3.97;2.40;;;;;;;40.56;14.93;93610.53;5090635;28;20107;-48
2022/05/17 09:08:12;;;;;;;2.45;2.25;;;;;;;40.05;14.66;93608.41;5091812;28;20031;-49
2022/05/17 09:10:50;;;;;;;10.43;2.65;;;;;;;40.19;14.87;93612.53;5090517;28;20074;-50
2022/05/17 09:13:25;;;;;;;5.05;2.20;;;;;;;40.44;14.97;93605.66;5096239;28;20464;-51
2022/05/17 09:15:56;;;;;;;4.75;1.83;;;;;;;40.84;14.89;93598.47;5111708;27;20092;-51
2022/05/17 09:18:22;;;;;;;5.53;2.10;;;;;;;41.52;12.29;93600.06;5110624;28;20024;-52
2022/05/17 09:20:48;;;;;;;3.90;1.95;;;;;;;41.42;14.40;93603.16;5111214;28;20015;-47
2022/05/17 09:23:13;;;;;;;2.58;2.00;;;;;;;40.85;14.03;93607.88;5111312;28;20026;-46
2022/05/17 09:25:57;;;;;;;3.10;1.70;;;;;;;40.45;14.76;93604.19;5111465;28;20019;-51
2022/05/17 09:28:29;;;;;;;4.90;1.98;;;;;;;40.45;15.99;93597.69;5111339;28;20027;-48
2022/05/17 09:31:15;;;;;;;5.70;2.05;;;;;;;40.62;14.23;93596.66;5110124;28;20519;-51
2022/05/17 09:33:41;;;;;;;2.67;2.00;;;;;;;40.92;14.52;93591.81;5111354;28;20020;-48
2022/05/17 09:36:08;;;;;;;3.50;2.13;;;;;;;41.17;14.91;93593.50;5111209;28;20038;-49
2022/05/17 09:38:38;;;;;;;1.92;1.83;;;;;;;41.28;12.69;93591.16;5111516;28;20385;-51
2022/05/17 09:41:09;;;;;;;5.78;1.80;;;;;;;40.72;13.27;93584.91;5111397;28;20019;-49
2022/05/17 09:43:56;;;;;;;3.55;1.90;;;;;;;39.63;14.96;93582.97;5109798;28;20019;-53
2022/05/17 09:46:36;;;;;;;2.10;1.77;;;;;;;39.72;14.86;93580.69;5109770;28;20023;-50
2022/05/17 09:52:32;;;;;;;3.55;2.22;;;;;;;39.33;15.85;93584.03;5110198;28;20504;-49
2022/05/17 09:55:23;;;;;;;3.28;2.15;;;;;;;39.62;16.42;93589.47;5110937;28;20084;-51
2022/05/17 09:58:07;;;;;;;7.22;2.22;;;;;;;39.83;16.18;93590.66;5111231;28;20028;-49
2022/05/17 10:00:50;;;;;;;2.95;2.17;;;;;;;40.31;13.86;93571.84;5110741;28;20047;-52
2022/05/17 10:03:15;;;;;;;2.83;2.30;;;;;;;40.60;15.92;93575.72;5109643;28;20031;-52
2022/05/17 10:05:54;;;;;;;4.30;2.15;;;;;;;39.60;14.42;93575.03;5110763;28;20043;-52
2022/05/17 10:08:20;;;;;;;4.50;2.20;;;;;;;39.83;16.58;93576.88;5110882;28;20503;-47
2022/05/17 10:10:47;;;;;;;2.17;1.95;;;;;;;39.70;17.12;93581.41;5095445;28;20027;-52
2022/05/17 10:13:32;;;;;;;2.15;1.95;;;;;;;39.87;14.74;93579.00;5089164;28;20485;-48
2022/05/17 10:16:37;;;;;;;4.18;2.10;;;;;;;39.87;14.11;93568.16;5089449;28;20088;-50
2022/05/17 10:19:40;;;;;;;2.80;2.25;;;;;;;39.64;14.00;93560.53;5089423;28;20138;-51
2022/05/17 10:22:15;;;;;;;4.50;2.10;;;;;;;38.78;14.58;93560.09;5063526;28;20071;-49
2022/05/17 10:24:48;;;;;;;5.40;2.00;;;;;;;39.07;14.92;93552.53;5087409;28;20032;-51
2022/05/17 10:27:16;;;;;;;3.47;2.15;;;;;;;38.33;16.62;93553.31;5090311;28;20562;-53
2022/05/17 10:29:46;;;;;;;2.25;2.08;;;;;;;39.23;15.79;93545.88;5089984;28;20031;-49
2022/05/17 10:32:43;;;;;;;3.72;2.20;;;;;;;39.34;14.23;93544.31;5088867;28;20066;-51
2022/05/17 10:35:36;;;;;;;2.70;2.20;;;;;;;39.52;16.69;93541.19;5089029;28;20032;-51
2022/05/17 10:38:13;;;;;;;4.97;3.05;;;;;;;39.05;14.96;93534.56;5093219;28;20430;-49
2022/05/17 10:40:46;;;;;;;5.63;3.85;;;;;;;39.18;15.07;93536.56;5093093;28;20031;-50
2022/05/17 10:43:17;;;;;;;4.43;2.20;;;;;;;39.00;15.39;93522.31;5094476;28;20073;-51
2022/05/17 10:45:46;;;;;;;4.65;2.58;;;;;;;38.58;15.92;93528.53;5094185;28;20028;-49
2022/05/17 10:48:29;;;;;;;4.32;2.33;;;;;;;39.02;15.62;93530.25;5094064;28;20028;-47
2022/05/17 10:50:57;;;;;;;2.13;1.83;;;;;;;38.71;16.21;93529.16;5092952;28;20504;-48
2022/05/17 10:54:00;;;;;;;3.13;1.70;;;;;;;38.87;16.39;93526.09;5094282;28;20106;-48
2022/05/17 10:56:43;;;;;;;1.90;1.60;;;;;;;38.85;15.75;93508.78;5093988;28;20497;-48
2022/05/17 10:59:31;;;;;;;3.15;1.90;;;;;;;38.91;15.09;93518.09;5108863;28;20033;-51
2022/05/17 11:02:47;;;;;;;3.67;2.03;;;;;;;38.48;15.27;93517.81;5114177;28;20428;-49
2022/05/17 11:05:42;;;;;;;4.67;2.57;;;;;;;38.52;15.32;93520.66;5090535;28;20119;-50
2022/05/17 11:08:38;;;;;;;3.03;2.03;;;;;;;36.75;16.16;93515.28;5105021;28;20135;-49
2022/05/17 11:11:43;;;;;;;5.72;2.20;;;;;;;35.23;17.77;93516.69;5114359;27;20053;-48
2022/05/17 11:14:33;;;;;;;3.25;2.25;;;;;;;33.60;18.16;93513.53;5091130;28;20527;-48
2022/05/17 11:17:13;;;;;;;3.97;2.28;;;;;;;32.62;19.07;93505.28;5112068;28;20556;-49
2022/05/17 11:19:46;;;;;;;5.88;2.03;;;;;;;32.72;19.25;93505.41;5113959;28;20539;-48
2022/05/17 11:22:34;;;;;;;3.05;2.00;;;;;;;33.18;18.87;93493.78;5112512;28;20019;-49
2022/05/17 11:25:14;;;;;;;2.80;2.00;;;;;;;33.16;19.75;93490.19;5114210;28;20028;-50
2022/05/17 11:28:09;;;;;;;2.95;2.42;;;;;;;33.54;19.73;93488.44;5113771;28;20085;-48
2022/05/17 11:30:38;;;;;;;5.38;2.00;;;;;;;33.37;21.83;93486.81;5113745;28;20412;-49
2022/05/17 11:33:06;;;;;;;2.53;2.28;;;;;;;32.20;22.31;93478.97;5113943;28;20024;-50
2022/05/17 11:35:31;;;;;;;3.03;2.30;;;;;;;31.75;23.51;93479.72;5113929;28;20023;-52
2022/05/17 11:37:58;;;;;;;3.28;2.30;;;;;;;31.13;24.39;93479.38;5113581;28;20416;-49
2022/05/17 11:40:42;;;;;;;2.90;2.28;;;;;;;30.46;26.03;93483.78;5113424;28;20163;-51
2022/05/17 11:45:55;;;;;;;4.28;2.00;;;;;;;29.79;25.40;93473.03;5113691;28;20035;-48
2022/05/17 11:48:24;;;;;;;7.37;2.67;;;;;;;29.92;26.48;93474.03;5112442;28;20025;-48
2022/05/17 11:50:52;;;;;;;2.60;2.33;;;;;;;29.74;26.64;93473.63;5112411;28;20425;-49
2022/05/17 11:53:23;;;;;;;3.65;2.00;;;;;;;29.59;25.10;93472.53;5113231;28;20034;-52
2022/05/17 11:56:28;;;;;;;3.60;2.97;;;;;;;29.49;25.96;93463.78;5113506;28;20023;-50
2022/05/17 11:58:59;;;;;;;2.28;2.03;;;;;;;29.43;27.18;93463.63;5100290;28;20110;-51
2022/05/17 12:01:31;;;;;;;6.13;2.30;;;;;;;29.30;26.47;93464.75;5092620;28;20059;-51